Integrity — WDF4881 — position and weather

sailwx.info

Track history (hours):
 
Tides and Currents Weather Stations Pressure Air Temp Water Temp Dewpoint Dewpoint Depression Visibility Wind Speed Wind Dir Waves Ship Positions

Integrity

Owner: Canal Barge Company, Inc., Belle Chasse, LA. More information available from US FCC via Universal Licensing System and Coast Guard Vessel Documentation Center.

Last reported at 2015-May-27 15:30 UTC. Time now 2015-May-30 16:39 UTC.
Position N 29°34' W 090°56'.

Length 19 m; draft 2.8 m.

Type: Towing. MMSI: 367456830.

Date/timePositionNaut miles runAvg speedWind from/ knotsBaromVisibWave heightAir tempDewpointWater temp
2015-May-27 15:30N 29°34' W 090°56'6 6.3
2015-May-27 14:33N 29°32' W 090°50'5 5.3
2015-May-27 13:34N 29°34' W 090°44'4 3.6
2015-May-27 12:34N 29°37' W 090°41'0 0.2
2015-May-27 11:34N 29°36' W 090°41'0 0.1
2015-May-27 10:34N 29°36' W 090°41'1 1.2
2015-May-27 09:33N 29°36' W 090°40'3 2.9
2015-May-27 08:34N 29°35' W 090°37'4 4.0
2015-May-27 07:33N 29°34' W 090°32'29 3.9
2015-May-27 00:17N 29°49' W 090°04'4 4.7
2015-May-26 23:30N 29°51' W 090°01'5 2.3
2015-May-26 21:29N 29°55' W 089°58'1 0.9
2015-May-26 20:33N 29°55' W 089°57'0 0.0
2015-May-26 19:33N 29°55' W 089°57'0 0.0
2015-May-26 18:32N 29°55' W 089°57'0 0.0
2015-May-26 17:32N 29°55' W 089°57'7 0.7
2015-May-26 07:21N 29°55' W 090°05'0 0.2
2015-May-26 05:18N 29°55' W 090°05'4 4.5
2015-May-26 04:27N 29°57' W 090°09'3 0.1
2015-May-24 01:31N 29°55' W 090°06'1 1.2
2015-May-24 00:32N 29°55' W 090°05'0 0.0
2015-May-23 23:25N 29°55' W 090°05'3 1.6
2015-May-23 21:31N 29°57' W 090°03'4 4.3
2015-May-23 20:33N 29°56' W 089°59'1 0.7
2015-May-23 19:14N 29°55' W 089°59'0 0.2
2015-May-23 18:22N 29°55' W 089°59'0 0.0
2015-May-23 17:27N 29°55' W 089°59'0 0.0
2015-May-23 16:11N 29°55' W 089°59'0 0.0
2015-May-23 15:25N 29°55' W 089°59'0 0.0
2015-May-23 14:28N 29°55' W 089°59'0 0.0
2015-May-23 13:31N 29°55' W 089°59'36 2.0
2015-May-22 19:33N 29°34' W 090°32'4 4.3
2015-May-22 18:33N 29°35' W 090°37'3 3.3
2015-May-22 17:33N 29°36' W 090°40'2 2.5
2015-May-22 16:33N 29°35' W 090°43'4 4.3
2015-May-22 15:33N 29°32' W 090°46'11 5.2
2015-May-22 13:27N 29°36' W 090°58'  
Track history (hours):
 
Tides and Currents Weather Stations Pressure Air Temp Water Temp Dewpoint Dewpoint Depression Visibility Wind Speed Wind Dir Waves Ship Positions

Integrity

Owner: Canal Barge Company, Inc., Belle Chasse, LA. More information available from US FCC via Universal Licensing System and Coast Guard Vessel Documentation Center.

Last reported at 2015-May-27 15:30 UTC. Time now 2015-May-30 16:39 UTC.
Position N 29°34' W 090°56'.

Length 19 m; draft 2.8 m.

Type: Towing. MMSI: 367456830.

Date/timePositionNaut miles runAvg speedWind from/ knotsBaromVisibWave heightAir tempDewpointWater temp
2015-May-27 15:30N 29°34' W 090°56'6 6.3
2015-May-27 14:33N 29°32' W 090°50'5 5.3
2015-May-27 13:34N 29°34' W 090°44'4 3.6
2015-May-27 12:34N 29°37' W 090°41'0 0.2
2015-May-27 11:34N 29°36' W 090°41'0 0.1
2015-May-27 10:34N 29°36' W 090°41'1 1.2
2015-May-27 09:33N 29°36' W 090°40'3 2.9
2015-May-27 08:34N 29°35' W 090°37'4 4.0
2015-May-27 07:33N 29°34' W 090°32'29 3.9
2015-May-27 00:17N 29°49' W 090°04'4 4.7
2015-May-26 23:30N 29°51' W 090°01'5 2.3
2015-May-26 21:29N 29°55' W 089°58'1 0.9
2015-May-26 20:33N 29°55' W 089°57'0 0.0
2015-May-26 19:33N 29°55' W 089°57'0 0.0
2015-May-26 18:32N 29°55' W 089°57'0 0.0
2015-May-26 17:32N 29°55' W 089°57'7 0.7
2015-May-26 07:21N 29°55' W 090°05'0 0.2
2015-May-26 05:18N 29°55' W 090°05'4 4.5
2015-May-26 04:27N 29°57' W 090°09'3 0.1
2015-May-24 01:31N 29°55' W 090°06'1 1.2
2015-May-24 00:32N 29°55' W 090°05'0 0.0
2015-May-23 23:25N 29°55' W 090°05'3 1.6
2015-May-23 21:31N 29°57' W 090°03'4 4.3
2015-May-23 20:33N 29°56' W 089°59'1 0.7
2015-May-23 19:14N 29°55' W 089°59'0 0.2
2015-May-23 18:22N 29°55' W 089°59'0 0.0
2015-May-23 17:27N 29°55' W 089°59'0 0.0
2015-May-23 16:11N 29°55' W 089°59'0 0.0
2015-May-23 15:25N 29°55' W 089°59'0 0.0
2015-May-23 14:28N 29°55' W 089°59'0 0.0
2015-May-23 13:31N 29°55' W 089°59'36 2.0
2015-May-22 19:33N 29°34' W 090°32'4 4.3
2015-May-22 18:33N 29°35' W 090°37'3 3.3
2015-May-22 17:33N 29°36' W 090°40'2 2.5
2015-May-22 16:33N 29°35' W 090°43'4 4.3
2015-May-22 15:33N 29°32' W 090°46'11 5.2
2015-May-22 13:27N 29°36' W 090°58'  

Dump ship's entire track history